sensor_id;sensor_type;location;lat;lon;timestamp;P1;durP1;ratioP1;P2;durP2;ratioP2
74267;SDS011;62638;51.362;12.472;2023-02-17T00:00:54;16.27;;;6.65;;
74267;SDS011;62638;51.362;12.472;2023-02-17T00:03:19;16.00;;;6.53;;
74267;SDS011;62638;51.362;12.472;2023-02-17T00:05:45;14.50;;;6.53;;
74267;SDS011;62638;51.362;12.472;2023-02-17T00:08:10;16.23;;;6.65;;
74267;SDS011;62638;51.362;12.472;2023-02-17T00:10:35;12.80;;;5.93;;
74267;SDS011;62638;51.362;12.472;2023-02-17T00:13:01;14.65;;;6.45;;
74267;SDS011;62638;51.362;12.472;2023-02-17T00:15:26;16.83;;;6.97;;
74267;SDS011;62638;51.362;12.472;2023-02-17T00:17:51;7.47;;;4.33;;
74267;SDS011;62638;51.362;12.472;2023-02-17T00:20:17;13.70;;;6.90;;
74267;SDS011;62638;51.362;12.472;2023-02-17T00:22:42;13.53;;;5.47;;
74267;SDS011;62638;51.362;12.472;2023-02-17T00:25:07;16.37;;;6.90;;
74267;SDS011;62638;51.362;12.472;2023-02-17T00:27:32;15.83;;;5.90;;
74267;SDS011;62638;51.362;12.472;2023-02-17T00:29:58;12.53;;;5.60;;
74267;SDS011;62638;51.362;12.472;2023-02-17T00:32:23;17.40;;;6.20;;
74267;SDS011;62638;51.362;12.472;2023-02-17T00:34:48;13.43;;;6.53;;
74267;SDS011;62638;51.362;12.472;2023-02-17T00:37:16;11.10;;;4.90;;
74267;SDS011;62638;51.362;12.472;2023-02-17T00:39:41;9.37;;;6.17;;
74267;SDS011;62638;51.362;12.472;2023-02-17T00:42:06;16.53;;;6.27;;
74267;SDS011;62638;51.362;12.472;2023-02-17T00:44:31;12.50;;;5.60;;
74267;SDS011;62638;51.362;12.472;2023-02-17T00:46:57;15.43;;;7.20;;
74267;SDS011;62638;51.362;12.472;2023-02-17T00:49:23;16.37;;;5.90;;
74267;SDS011;62638;51.362;12.472;2023-02-17T00:51:50;15.63;;;6.60;;
74267;SDS011;62638;51.362;12.472;2023-02-17T00:54:16;11.20;;;6.75;;
74267;SDS011;62638;51.362;12.472;2023-02-17T00:56:42;11.40;;;5.55;;
74267;SDS011;62638;51.362;12.472;2023-02-17T00:59:08;9.77;;;5.53;;
74267;SDS011;62638;51.362;12.472;2023-02-17T01:01:34;13.27;;;5.88;;
74267;SDS011;62638;51.362;12.472;2023-02-17T01:04:00;11.52;;;5.97;;
74267;SDS011;62638;51.362;12.472;2023-02-17T01:06:33;13.80;;;6.25;;
74267;SDS011;62638;51.362;12.472;2023-02-17T01:09:00;8.80;;;4.95;;
74267;SDS011;62638;51.362;12.472;2023-02-17T01:11:27;15.80;;;5.53;;
74267;SDS011;62638;51.362;12.472;2023-02-17T01:13:55;11.98;;;5.68;;
74267;SDS011;62638;51.362;12.472;2023-02-17T01:16:30;13.00;;;5.15;;
74267;SDS011;62638;51.362;12.472;2023-02-17T01:18:59;19.20;;;5.78;;
74267;SDS011;62638;51.362;12.472;2023-02-17T01:21:26;17.42;;;6.72;;
74267;SDS011;62638;51.362;12.472;2023-02-17T01:23:53;12.02;;;5.47;;
74267;SDS011;62638;51.362;12.472;2023-02-17T01:26:21;12.70;;;5.63;;
74267;SDS011;62638;51.362;12.472;2023-02-17T01:28:49;11.90;;;5.85;;
74267;SDS011;62638;51.362;12.472;2023-02-17T01:31:15;14.30;;;6.18;;
74267;SDS011;62638;51.362;12.472;2023-02-17T01:33:41;14.05;;;5.30;;
74267;SDS011;62638;51.362;12.472;2023-02-17T01:36:09;10.32;;;5.57;;
74267;SDS011;62638;51.362;12.472;2023-02-17T01:38:36;10.07;;;5.32;;
74267;SDS011;62638;51.362;12.472;2023-02-17T01:41:02;13.00;;;5.82;;
74267;SDS011;62638;51.362;12.472;2023-02-17T01:43:27;14.05;;;6.15;;
74267;SDS011;62638;51.362;12.472;2023-02-17T01:45:54;11.05;;;5.90;;
74267;SDS011;62638;51.362;12.472;2023-02-17T01:48:21;14.60;;;6.63;;
74267;SDS011;62638;51.362;12.472;2023-02-17T01:50:52;10.93;;;5.50;;
74267;SDS011;62638;51.362;12.472;2023-02-17T01:53:25;14.40;;;5.15;;
74267;SDS011;62638;51.362;12.472;2023-02-17T01:55:54;12.70;;;6.20;;
74267;SDS011;62638;51.362;12.472;2023-02-17T01:58:21;8.95;;;4.80;;
74267;SDS011;62638;51.362;12.472;2023-02-17T02:00:48;14.82;;;5.18;;
74267;SDS011;62638;51.362;12.472;2023-02-17T02:03:17;12.55;;;5.28;;
74267;SDS011;62638;51.362;12.472;2023-02-17T02:05:42;9.98;;;5.18;;
74267;SDS011;62638;51.362;12.472;2023-02-17T02:08:08;9.73;;;4.50;;
74267;SDS011;62638;51.362;12.472;2023-02-17T02:10:36;9.52;;;4.88;;
74267;SDS011;62638;51.362;12.472;2023-02-17T02:13:01;11.35;;;5.97;;
74267;SDS011;62638;51.362;12.472;2023-02-17T02:15:29;10.25;;;4.55;;
74267;SDS011;62638;51.362;12.472;2023-02-17T02:20:54;12.60;;;5.80;;
74267;SDS011;62638;51.362;12.472;2023-02-17T02:35:09;11.50;;;4.32;;
74267;SDS011;62638;51.362;12.472;2023-02-17T02:37:56;15.43;;;5.10;;
74267;SDS011;62638;51.362;12.472;2023-02-17T02:40:28;10.57;;;5.18;;
74267;SDS011;62638;51.362;12.472;2023-02-17T02:42:59;7.22;;;4.05;;
74267;SDS011;62638;51.362;12.472;2023-02-17T02:45:26;14.27;;;5.90;;
74267;SDS011;62638;51.362;12.472;2023-02-17T02:47:52;16.45;;;6.13;;
74267;SDS011;62638;51.362;12.472;2023-02-17T02:59:18;11.00;;;3.85;;
74267;SDS011;62638;51.362;12.472;2023-02-17T03:07:13;8.50;;;4.78;;
74267;SDS011;62638;51.362;12.472;2023-02-17T03:09:51;7.70;;;4.90;;
74267;SDS011;62638;51.362;12.472;2023-02-17T03:12:18;13.35;;;5.05;;
74267;SDS011;62638;51.362;12.472;2023-02-17T03:14:44;10.57;;;5.65;;
74267;SDS011;62638;51.362;12.472;2023-02-17T03:17:12;12.93;;;5.82;;
74267;SDS011;62638;51.362;12.472;2023-02-17T03:19:37;7.10;;;3.93;;
74267;SDS011;62638;51.362;12.472;2023-02-17T03:22:08;9.15;;;5.10;;
74267;SDS011;62638;51.362;12.472;2023-02-17T03:24:39;11.05;;;4.20;;
74267;SDS011;62638;51.362;12.472;2023-02-17T03:27:04;11.07;;;5.43;;
74267;SDS011;62638;51.362;12.472;2023-02-17T03:29:29;11.90;;;5.03;;
74267;SDS011;62638;51.362;12.472;2023-02-17T03:31:55;10.20;;;5.37;;
74267;SDS011;62638;51.362;12.472;2023-02-17T03:34:20;9.10;;;4.38;;
74267;SDS011;62638;51.362;12.472;2023-02-17T03:36:46;13.30;;;5.13;;
74267;SDS011;62638;51.362;12.472;2023-02-17T03:39:11;11.20;;;4.40;;
74267;SDS011;62638;51.362;12.472;2023-02-17T03:41:36;8.70;;;4.33;;
74267;SDS011;62638;51.362;12.472;2023-02-17T03:44:01;8.17;;;4.90;;
74267;SDS011;62638;51.362;12.472;2023-02-17T03:46:27;12.57;;;5.63;;
74267;SDS011;62638;51.362;12.472;2023-02-17T03:48:52;12.83;;;6.63;;
74267;SDS011;62638;51.362;12.472;2023-02-17T03:51:18;10.83;;;5.20;;
74267;SDS011;62638;51.362;12.472;2023-02-17T03:53:46;10.65;;;4.38;;
74267;SDS011;62638;51.362;12.472;2023-02-17T03:56:12;8.95;;;4.47;;
74267;SDS011;62638;51.362;12.472;2023-02-17T03:58:38;11.20;;;4.82;;
74267;SDS011;62638;51.362;12.472;2023-02-17T04:01:04;10.75;;;3.58;;
74267;SDS011;62638;51.362;12.472;2023-02-17T04:03:29;7.93;;;4.03;;
74267;SDS011;62638;51.362;12.472;2023-02-17T04:05:55;12.48;;;5.60;;
74267;SDS011;62638;51.362;12.472;2023-02-17T04:08:21;5.80;;;3.72;;
74267;SDS011;62638;51.362;12.472;2023-02-17T04:10:50;11.18;;;5.88;;
74267;SDS011;62638;51.362;12.472;2023-02-17T04:13:16;11.90;;;5.78;;
74267;SDS011;62638;51.362;12.472;2023-02-17T04:15:42;10.85;;;4.05;;
74267;SDS011;62638;51.362;12.472;2023-02-17T04:18:07;10.07;;;4.70;;
74267;SDS011;62638;51.362;12.472;2023-02-17T04:20:32;8.00;;;4.20;;
74267;SDS011;62638;51.362;12.472;2023-02-17T04:22:57;8.53;;;4.77;;
74267;SDS011;62638;51.362;12.472;2023-02-17T04:25:23;8.03;;;4.43;;
74267;SDS011;62638;51.362;12.472;2023-02-17T04:27:48;12.27;;;5.15;;
74267;SDS011;62638;51.362;12.472;2023-02-17T04:30:13;7.37;;;3.90;;
74267;SDS011;62638;51.362;12.472;2023-02-17T04:32:39;8.10;;;3.80;;
74267;SDS011;62638;51.362;12.472;2023-02-17T04:35:04;13.13;;;4.97;;
74267;SDS011;62638;51.362;12.472;2023-02-17T04:37:30;6.85;;;4.38;;
74267;SDS011;62638;51.362;12.472;2023-02-17T04:39:55;10.30;;;4.80;;
74267;SDS011;62638;51.362;12.472;2023-02-17T04:42:20;7.10;;;4.07;;
74267;SDS011;62638;51.362;12.472;2023-02-17T04:44:45;9.20;;;4.10;;
74267;SDS011;62638;51.362;12.472;2023-02-17T04:47:11;8.47;;;3.97;;
74267;SDS011;62638;51.362;12.472;2023-02-17T04:49:36;7.40;;;3.63;;
74267;SDS011;62638;51.362;12.472;2023-02-17T04:52:01;13.17;;;4.83;;
74267;SDS011;62638;51.362;12.472;2023-02-17T04:54:27;8.98;;;3.88;;
74267;SDS011;62638;51.362;12.472;2023-02-17T04:56:52;10.97;;;4.23;;
74267;SDS011;62638;51.362;12.472;2023-02-17T04:59:17;10.17;;;4.33;;
74267;SDS011;62638;51.362;12.472;2023-02-17T05:01:42;9.73;;;3.90;;
74267;SDS011;62638;51.362;12.472;2023-02-17T05:04:08;7.80;;;3.77;;
74267;SDS011;62638;51.362;12.472;2023-02-17T05:06:33;9.50;;;3.47;;
74267;SDS011;62638;51.362;12.472;2023-02-17T05:08:58;8.20;;;3.57;;
74267;SDS011;62638;51.362;12.472;2023-02-17T05:11:23;6.50;;;4.10;;
74267;SDS011;62638;51.362;12.472;2023-02-17T05:13:49;6.35;;;4.25;;
74267;SDS011;62638;51.362;12.472;2023-02-17T05:16:14;9.53;;;4.33;;
74267;SDS011;62638;51.362;12.472;2023-02-17T05:18:39;7.40;;;5.03;;
74267;SDS011;62638;51.362;12.472;2023-02-17T05:21:04;10.07;;;4.10;;
74267;SDS011;62638;51.362;12.472;2023-02-17T05:23:30;6.33;;;3.87;;
74267;SDS011;62638;51.362;12.472;2023-02-17T05:25:55;7.83;;;4.50;;
74267;SDS011;62638;51.362;12.472;2023-02-17T05:28:20;8.47;;;3.77;;
74267;SDS011;62638;51.362;12.472;2023-02-17T05:30:49;7.97;;;3.50;;
74267;SDS011;62638;51.362;12.472;2023-02-17T05:33:14;4.63;;;2.60;;
74267;SDS011;62638;51.362;12.472;2023-02-17T05:35:39;6.30;;;3.05;;
74267;SDS011;62638;51.362;12.472;2023-02-17T05:38:05;9.73;;;3.80;;
74267;SDS011;62638;51.362;12.472;2023-02-17T05:40:30;5.90;;;2.97;;
74267;SDS011;62638;51.362;12.472;2023-02-17T05:42:56;9.50;;;4.65;;
74267;SDS011;62638;51.362;12.472;2023-02-17T05:45:21;5.13;;;3.43;;
74267;SDS011;62638;51.362;12.472;2023-02-17T05:47:46;8.73;;;3.10;;
74267;SDS011;62638;51.362;12.472;2023-02-17T05:50:11;9.50;;;3.87;;
74267;SDS011;62638;51.362;12.472;2023-02-17T05:52:37;11.82;;;3.63;;
74267;SDS011;62638;51.362;12.472;2023-02-17T05:55:02;9.63;;;3.73;;
74267;SDS011;62638;51.362;12.472;2023-02-17T05:57:28;7.57;;;4.20;;
74267;SDS011;62638;51.362;12.472;2023-02-17T05:59:54;5.20;;;2.60;;
74267;SDS011;62638;51.362;12.472;2023-02-17T06:02:20;7.15;;;3.60;;
74267;SDS011;62638;51.362;12.472;2023-02-17T06:04:45;3.67;;;2.53;;
74267;SDS011;62638;51.362;12.472;2023-02-17T06:07:10;9.10;;;3.80;;
74267;SDS011;62638;51.362;12.472;2023-02-17T06:09:35;5.27;;;3.00;;
74267;SDS011;62638;51.362;12.472;2023-02-17T06:12:01;5.10;;;2.83;;
74267;SDS011;62638;51.362;12.472;2023-02-17T06:14:26;4.43;;;2.13;;
74267;SDS011;62638;51.362;12.472;2023-02-17T06:16:51;5.15;;;2.60;;
74267;SDS011;62638;51.362;12.472;2023-02-17T06:19:17;3.63;;;2.70;;
74267;SDS011;62638;51.362;12.472;2023-02-17T06:21:42;8.67;;;3.30;;
74267;SDS011;62638;51.362;12.472;2023-02-17T06:24:08;6.07;;;2.92;;
74267;SDS011;62638;51.362;12.472;2023-02-17T06:26:33;5.35;;;2.50;;
74267;SDS011;62638;51.362;12.472;2023-02-17T06:28:59;5.83;;;2.70;;
74267;SDS011;62638;51.362;12.472;2023-02-17T06:31:24;6.17;;;2.27;;
74267;SDS011;62638;51.362;12.472;2023-02-17T06:33:49;5.07;;;2.40;;
74267;SDS011;62638;51.362;12.472;2023-02-17T06:36:14;4.43;;;2.53;;
74267;SDS011;62638;51.362;12.472;2023-02-17T06:38:40;3.97;;;2.37;;
74267;SDS011;62638;51.362;12.472;2023-02-17T06:41:05;4.57;;;2.83;;
74267;SDS011;62638;51.362;12.472;2023-02-17T06:43:30;4.43;;;2.50;;
74267;SDS011;62638;51.362;12.472;2023-02-17T06:45:56;7.03;;;2.13;;
74267;SDS011;62638;51.362;12.472;2023-02-17T06:48:21;5.53;;;2.70;;
74267;SDS011;62638;51.362;12.472;2023-02-17T06:50:47;4.73;;;2.20;;
74267;SDS011;62638;51.362;12.472;2023-02-17T06:53:13;7.85;;;2.67;;
74267;SDS011;62638;51.362;12.472;2023-02-17T06:55:38;3.97;;;3.10;;
74267;SDS011;62638;51.362;12.472;2023-02-17T06:58:03;2.03;;;1.42;;
74267;SDS011;62638;51.362;12.472;2023-02-17T07:00:29;4.97;;;3.13;;
74267;SDS011;62638;51.362;12.472;2023-02-17T07:02:54;7.70;;;3.53;;
74267;SDS011;62638;51.362;12.472;2023-02-17T07:05:19;6.87;;;3.07;;
74267;SDS011;62638;51.362;12.472;2023-02-17T07:07:45;4.40;;;2.60;;
74267;SDS011;62638;51.362;12.472;2023-02-17T07:10:10;2.45;;;1.90;;
74267;SDS011;62638;51.362;12.472;2023-02-17T07:12:36;3.58;;;2.10;;
74267;SDS011;62638;51.362;12.472;2023-02-17T07:15:01;4.67;;;2.73;;
74267;SDS011;62638;51.362;12.472;2023-02-17T07:17:27;2.80;;;1.60;;
74267;SDS011;62638;51.362;12.472;2023-02-17T07:19:52;7.07;;;3.15;;
74267;SDS011;62638;51.362;12.472;2023-02-17T07:22:17;6.40;;;2.70;;
74267;SDS011;62638;51.362;12.472;2023-02-17T07:24:42;4.30;;;2.70;;
74267;SDS011;62638;51.362;12.472;2023-02-17T07:27:08;3.97;;;2.10;;
74267;SDS011;62638;51.362;12.472;2023-02-17T07:29:33;5.18;;;2.58;;
74267;SDS011;62638;51.362;12.472;2023-02-17T07:31:59;5.28;;;2.65;;
74267;SDS011;62638;51.362;12.472;2023-02-17T07:34:24;4.38;;;2.38;;
74267;SDS011;62638;51.362;12.472;2023-02-17T07:36:49;6.70;;;3.93;;
74267;SDS011;62638;51.362;12.472;2023-02-17T07:39:14;5.13;;;2.70;;
74267;SDS011;62638;51.362;12.472;2023-02-17T07:41:40;4.15;;;2.67;;
74267;SDS011;62638;51.362;12.472;2023-02-17T07:44:08;6.68;;;3.22;;
74267;SDS011;62638;51.362;12.472;2023-02-17T07:46:34;8.15;;;2.00;;
74267;SDS011;62638;51.362;12.472;2023-02-17T07:48:59;4.88;;;2.60;;
74267;SDS011;62638;51.362;12.472;2023-02-17T07:51:25;4.10;;;2.30;;
74267;SDS011;62638;51.362;12.472;2023-02-17T07:53:50;4.60;;;2.80;;
74267;SDS011;62638;51.362;12.472;2023-02-17T07:56:17;6.72;;;3.17;;
74267;SDS011;62638;51.362;12.472;2023-02-17T07:58:44;5.28;;;2.97;;
74267;SDS011;62638;51.362;12.472;2023-02-17T08:01:20;6.93;;;3.40;;
74267;SDS011;62638;51.362;12.472;2023-02-17T08:03:47;9.52;;;3.50;;
74267;SDS011;62638;51.362;12.472;2023-02-17T08:06:14;4.93;;;2.75;;
74267;SDS011;62638;51.362;12.472;2023-02-17T08:08:44;4.18;;;2.65;;
74267;SDS011;62638;51.362;12.472;2023-02-17T08:11:30;5.40;;;2.65;;
74267;SDS011;62638;51.362;12.472;2023-02-17T08:14:14;5.50;;;2.85;;
74267;SDS011;62638;51.362;12.472;2023-02-17T08:16:40;4.32;;;2.58;;
74267;SDS011;62638;51.362;12.472;2023-02-17T08:19:05;5.15;;;2.70;;
74267;SDS011;62638;51.362;12.472;2023-02-17T08:21:31;5.33;;;2.67;;
74267;SDS011;62638;51.362;12.472;2023-02-17T08:23:56;7.13;;;2.53;;
74267;SDS011;62638;51.362;12.472;2023-02-17T08:26:22;6.60;;;2.77;;
74267;SDS011;62638;51.362;12.472;2023-02-17T08:28:47;6.15;;;3.08;;
74267;SDS011;62638;51.362;12.472;2023-02-17T08:31:14;3.60;;;2.67;;
74267;SDS011;62638;51.362;12.472;2023-02-17T08:33:40;4.30;;;2.13;;
74267;SDS011;62638;51.362;12.472;2023-02-17T08:36:06;5.87;;;3.07;;
74267;SDS011;62638;51.362;12.472;2023-02-17T08:38:32;5.95;;;2.42;;
74267;SDS011;62638;51.362;12.472;2023-02-17T08:41:01;3.78;;;2.55;;
74267;SDS011;62638;51.362;12.472;2023-02-17T08:43:26;5.68;;;2.05;;
74267;SDS011;62638;51.362;12.472;2023-02-17T08:45:51;4.43;;;2.30;;
74267;SDS011;62638;51.362;12.472;2023-02-17T08:48:17;3.67;;;2.22;;
74267;SDS011;62638;51.362;12.472;2023-02-17T08:50:42;4.20;;;2.25;;
74267;SDS011;62638;51.362;12.472;2023-02-17T08:53:12;3.70;;;2.08;;
74267;SDS011;62638;51.362;12.472;2023-02-17T08:55:37;6.32;;;2.70;;
74267;SDS011;62638;51.362;12.472;2023-02-17T08:58:02;5.23;;;2.77;;
74267;SDS011;62638;51.362;12.472;2023-02-17T09:00:27;3.53;;;2.07;;
74267;SDS011;62638;51.362;12.472;2023-02-17T09:02:53;5.67;;;2.77;;
74267;SDS011;62638;51.362;12.472;2023-02-17T09:05:18;2.45;;;1.67;;
74267;SDS011;62638;51.362;12.472;2023-02-17T09:07:43;3.10;;;1.50;;
74267;SDS011;62638;51.362;12.472;2023-02-17T09:10:09;3.03;;;1.63;;
74267;SDS011;62638;51.362;12.472;2023-02-17T09:12:35;4.05;;;2.00;;
74267;SDS011;62638;51.362;12.472;2023-02-17T09:15:00;2.70;;;1.92;;
74267;SDS011;62638;51.362;12.472;2023-02-17T09:17:25;4.90;;;2.50;;
74267;SDS011;62638;51.362;12.472;2023-02-17T09:19:50;6.03;;;2.50;;
74267;SDS011;62638;51.362;12.472;2023-02-17T09:22:16;4.28;;;2.67;;
74267;SDS011;62638;51.362;12.472;2023-02-17T09:24:44;5.00;;;2.03;;
74267;SDS011;62638;51.362;12.472;2023-02-17T09:27:10;3.67;;;2.35;;
74267;SDS011;62638;51.362;12.472;2023-02-17T09:29:36;4.45;;;1.98;;
74267;SDS011;62638;51.362;12.472;2023-02-17T09:32:05;3.10;;;1.98;;
74267;SDS011;62638;51.362;12.472;2023-02-17T09:34:37;5.63;;;2.15;;
74267;SDS011;62638;51.362;12.472;2023-02-17T09:37:03;3.13;;;1.70;;
74267;SDS011;62638;51.362;12.472;2023-02-17T09:39:34;4.65;;;1.90;;
74267;SDS011;62638;51.362;12.472;2023-02-17T09:41:59;2.10;;;1.07;;
74267;SDS011;62638;51.362;12.472;2023-02-17T09:44:25;4.77;;;1.90;;
74267;SDS011;62638;51.362;12.472;2023-02-17T09:49:34;4.30;;;1.92;;
74267;SDS011;62638;51.362;12.472;2023-02-17T09:52:15;4.43;;;1.83;;
74267;SDS011;62638;51.362;12.472;2023-02-17T09:55:19;3.08;;;1.95;;
74267;SDS011;62638;51.362;12.472;2023-02-17T09:58:02;3.55;;;1.20;;
74267;SDS011;62638;51.362;12.472;2023-02-17T10:03:03;4.15;;;2.08;;
74267;SDS011;62638;51.362;12.472;2023-02-17T10:05:37;2.63;;;1.92;;
74267;SDS011;62638;51.362;12.472;2023-02-17T10:08:11;3.72;;;2.00;;
74267;SDS011;62638;51.362;12.472;2023-02-17T10:10:43;2.28;;;1.58;;
74267;SDS011;62638;51.362;12.472;2023-02-17T10:13:16;3.58;;;2.40;;
74267;SDS011;62638;51.362;12.472;2023-02-17T10:15:45;3.70;;;2.05;;
74267;SDS011;62638;51.362;12.472;2023-02-17T10:18:29;3.03;;;1.95;;
74267;SDS011;62638;51.362;12.472;2023-02-17T10:21:09;3.80;;;1.77;;
74267;SDS011;62638;51.362;12.472;2023-02-17T10:23:43;2.33;;;1.80;;
74267;SDS011;62638;51.362;12.472;2023-02-17T10:29:58;2.67;;;1.67;;
74267;SDS011;62638;51.362;12.472;2023-02-17T10:32:24;1.88;;;1.42;;
74267;SDS011;62638;51.362;12.472;2023-02-17T10:34:57;4.28;;;1.80;;
74267;SDS011;62638;51.362;12.472;2023-02-17T10:37:34;2.38;;;2.03;;
74267;SDS011;62638;51.362;12.472;2023-02-17T10:40:28;1.95;;;1.15;;
74267;SDS011;62638;51.362;12.472;2023-02-17T10:42:56;1.90;;;1.35;;
74267;SDS011;62638;51.362;12.472;2023-02-17T10:48:06;2.60;;;1.50;;
74267;SDS011;62638;51.362;12.472;2023-02-17T10:50:42;6.00;;;2.15;;
74267;SDS011;62638;51.362;12.472;2023-02-17T10:53:17;3.95;;;2.10;;
74267;SDS011;62638;51.362;12.472;2023-02-17T10:55:49;2.22;;;1.20;;
74267;SDS011;62638;51.362;12.472;2023-02-17T10:58:36;1.75;;;1.23;;
74267;SDS011;62638;51.362;12.472;2023-02-17T11:01:04;2.08;;;1.17;;
74267;SDS011;62638;51.362;12.472;2023-02-17T11:03:30;2.92;;;1.50;;
74267;SDS011;62638;51.362;12.472;2023-02-17T11:06:01;2.72;;;1.08;;
74267;SDS011;62638;51.362;12.472;2023-02-17T11:08:38;2.70;;;1.33;;
74267;SDS011;62638;51.362;12.472;2023-02-17T11:11:27;2.20;;;0.90;;
74267;SDS011;62638;51.362;12.472;2023-02-17T11:19:03;3.00;;;1.48;;
74267;SDS011;62638;51.362;12.472;2023-02-17T11:21:29;2.75;;;1.50;;
74267;SDS011;62638;51.362;12.472;2023-02-17T11:26:27;2.75;;;1.70;;
74267;SDS011;62638;51.362;12.472;2023-02-17T11:29:05;3.92;;;1.67;;
74267;SDS011;62638;51.362;12.472;2023-02-17T11:31:34;2.00;;;1.25;;
74267;SDS011;62638;51.362;12.472;2023-02-17T11:34:09;2.17;;;1.45;;
74267;SDS011;62638;51.362;12.472;2023-02-17T11:36:36;3.03;;;1.55;;
74267;SDS011;62638;51.362;12.472;2023-02-17T11:39:12;1.90;;;1.20;;
74267;SDS011;62638;51.362;12.472;2023-02-17T11:41:42;3.17;;;1.00;;
74267;SDS011;62638;51.362;12.472;2023-02-17T11:44:07;1.80;;;1.40;;
74267;SDS011;62638;51.362;12.472;2023-02-17T11:46:35;2.97;;;1.20;;
74267;SDS011;62638;51.362;12.472;2023-02-17T11:57:54;1.98;;;1.02;;
74267;SDS011;62638;51.362;12.472;2023-02-17T12:03:08;2.97;;;0.90;;
74267;SDS011;62638;51.362;12.472;2023-02-17T12:11:21;1.25;;;1.00;;
74267;SDS011;62638;51.362;12.472;2023-02-17T12:19:46;2.28;;;1.15;;
74267;SDS011;62638;51.362;12.472;2023-02-17T12:22:34;2.10;;;1.15;;
74267;SDS011;62638;51.362;12.472;2023-02-17T12:25:18;3.10;;;0.80;;
74267;SDS011;62638;51.362;12.472;2023-02-17T12:27:52;2.22;;;0.95;;
74267;SDS011;62638;51.362;12.472;2023-02-17T12:33:17;1.70;;;1.15;;
74267;SDS011;62638;51.362;12.472;2023-02-17T12:36:06;1.45;;;0.93;;
74267;SDS011;62638;51.362;12.472;2023-02-17T12:38:38;1.13;;;0.85;;
74267;SDS011;62638;51.362;12.472;2023-02-17T12:41:21;1.83;;;1.20;;
74267;SDS011;62638;51.362;12.472;2023-02-17T12:43:55;2.00;;;0.93;;
74267;SDS011;62638;51.362;12.472;2023-02-17T12:46:27;3.30;;;1.33;;
74267;SDS011;62638;51.362;12.472;2023-02-17T12:48:58;2.38;;;1.15;;
74267;SDS011;62638;51.362;12.472;2023-02-17T12:53:58;2.10;;;1.30;;
74267;SDS011;62638;51.362;12.472;2023-02-17T12:56:32;4.15;;;1.02;;
74267;SDS011;62638;51.362;12.472;2023-02-17T12:59:11;1.33;;;0.98;;
74267;SDS011;62638;51.362;12.472;2023-02-17T13:01:43;1.65;;;0.80;;
74267;SDS011;62638;51.362;12.472;2023-02-17T13:04:14;1.25;;;0.88;;
74267;SDS011;62638;51.362;12.472;2023-02-17T13:06:44;1.70;;;1.08;;
74267;SDS011;62638;51.362;12.472;2023-02-17T13:09:19;1.60;;;0.90;;
74267;SDS011;62638;51.362;12.472;2023-02-17T13:11:45;1.02;;;0.80;;
74267;SDS011;62638;51.362;12.472;2023-02-17T13:14:19;2.47;;;1.00;;
74267;SDS011;62638;51.362;12.472;2023-02-17T13:16:49;0.63;;;0.50;;
74267;SDS011;62638;51.362;12.472;2023-02-17T13:19:15;2.83;;;1.05;;
74267;SDS011;62638;51.362;12.472;2023-02-17T13:21:52;2.85;;;1.05;;
74267;SDS011;62638;51.362;12.472;2023-02-17T13:26:55;1.70;;;0.50;;
74267;SDS011;62638;51.362;12.472;2023-02-17T13:29:32;2.58;;;0.98;;
74267;SDS011;62638;51.362;12.472;2023-02-17T13:32:01;1.98;;;0.98;;
74267;SDS011;62638;51.362;12.472;2023-02-17T13:34:36;2.20;;;1.15;;
74267;SDS011;62638;51.362;12.472;2023-02-17T13:37:15;1.58;;;1.00;;
74267;SDS011;62638;51.362;12.472;2023-02-17T13:39:47;1.73;;;0.77;;
74267;SDS011;62638;51.362;12.472;2023-02-17T13:47:29;3.00;;;1.10;;
74267;SDS011;62638;51.362;12.472;2023-02-17T13:52:28;1.67;;;0.80;;
74267;SDS011;62638;51.362;12.472;2023-02-17T13:55:04;1.83;;;0.82;;
74267;SDS011;62638;51.362;12.472;2023-02-17T13:57:31;0.85;;;0.60;;
74267;SDS011;62638;51.362;12.472;2023-02-17T14:02:29;2.15;;;1.17;;
74267;SDS011;62638;51.362;12.472;2023-02-17T14:04:55;2.53;;;0.80;;
74267;SDS011;62638;51.362;12.472;2023-02-17T14:07:20;1.90;;;1.20;;
74267;SDS011;62638;51.362;12.472;2023-02-17T14:09:51;0.70;;;0.60;;
74267;SDS011;62638;51.362;12.472;2023-02-17T14:12:20;2.72;;;1.48;;
74267;SDS011;62638;51.362;12.472;2023-02-17T14:14:48;0.95;;;0.68;;
74267;SDS011;62638;51.362;12.472;2023-02-17T14:17:29;1.55;;;1.00;;
74267;SDS011;62638;51.362;12.472;2023-02-17T14:19:56;1.50;;;0.98;;
74267;SDS011;62638;51.362;12.472;2023-02-17T14:22:29;1.33;;;0.77;;
74267;SDS011;62638;51.362;12.472;2023-02-17T14:25:13;2.45;;;0.80;;
74267;SDS011;62638;51.362;12.472;2023-02-17T14:27:49;2.05;;;1.00;;
74267;SDS011;62638;51.362;12.472;2023-02-17T14:30:28;1.23;;;0.75;;
74267;SDS011;62638;51.362;12.472;2023-02-17T14:36:15;0.43;;;0.40;;
74267;SDS011;62638;51.362;12.472;2023-02-17T14:38:36;1.15;;;0.90;;
74267;SDS011;62638;51.362;12.472;2023-02-17T14:41:08;1.08;;;0.73;;
74267;SDS011;62638;51.362;12.472;2023-02-17T14:43:34;0.60;;;0.50;;
74267;SDS011;62638;51.362;12.472;2023-02-17T14:46:00;2.42;;;0.80;;
74267;SDS011;62638;51.362;12.472;2023-02-17T14:48:25;1.52;;;0.80;;
74267;SDS011;62638;51.362;12.472;2023-02-17T14:50:51;0.68;;;0.40;;
74267;SDS011;62638;51.362;12.472;2023-02-17T14:55:58;1.55;;;1.00;;
74267;SDS011;62638;51.362;12.472;2023-02-17T14:58:27;1.95;;;0.90;;
74267;SDS011;62638;51.362;12.472;2023-02-17T15:00:53;1.45;;;0.93;;
74267;SDS011;62638;51.362;12.472;2023-02-17T15:03:18;1.38;;;0.68;;
74267;SDS011;62638;51.362;12.472;2023-02-17T15:05:44;1.08;;;0.75;;
74267;SDS011;62638;51.362;12.472;2023-02-17T15:08:13;1.25;;;0.60;;
74267;SDS011;62638;51.362;12.472;2023-02-17T15:10:41;1.15;;;0.60;;
74267;SDS011;62638;51.362;12.472;2023-02-17T15:13:09;1.05;;;0.60;;
74267;SDS011;62638;51.362;12.472;2023-02-17T15:15:40;0.70;;;0.60;;
74267;SDS011;62638;51.362;12.472;2023-02-17T15:18:09;0.77;;;0.75;;
74267;SDS011;62638;51.362;12.472;2023-02-17T15:20:38;2.08;;;1.00;;
74267;SDS011;62638;51.362;12.472;2023-02-17T15:23:09;4.15;;;0.98;;
74267;SDS011;62638;51.362;12.472;2023-02-17T15:25:37;1.08;;;0.98;;
74267;SDS011;62638;51.362;12.472;2023-02-17T15:28:02;0.45;;;0.43;;
74267;SDS011;62638;51.362;12.472;2023-02-17T15:30:28;1.25;;;0.55;;
74267;SDS011;62638;51.362;12.472;2023-02-17T15:32:53;1.00;;;0.90;;
74267;SDS011;62638;51.362;12.472;2023-02-17T15:35:22;1.45;;;0.50;;
74267;SDS011;62638;51.362;12.472;2023-02-17T15:37:50;2.40;;;0.50;;
74267;SDS011;62638;51.362;12.472;2023-02-17T15:40:20;1.33;;;0.88;;
74267;SDS011;62638;51.362;12.472;2023-02-17T15:43:05;1.23;;;0.60;;
74267;SDS011;62638;51.362;12.472;2023-02-17T15:45:34;1.10;;;0.70;;
74267;SDS011;62638;51.362;12.472;2023-02-17T15:50:29;1.58;;;0.77;;
74267;SDS011;62638;51.362;12.472;2023-02-17T15:52:54;1.35;;;0.60;;
74267;SDS011;62638;51.362;12.472;2023-02-17T15:55:19;1.13;;;0.37;;
74267;SDS011;62638;51.362;12.472;2023-02-17T16:00:19;2.10;;;1.20;;
74267;SDS011;62638;51.362;12.472;2023-02-17T16:02:47;1.30;;;0.57;;
74267;SDS011;62638;51.362;12.472;2023-02-17T16:05:13;1.75;;;0.73;;
74267;SDS011;62638;51.362;12.472;2023-02-17T16:07:40;1.05;;;0.77;;
74267;SDS011;62638;51.362;12.472;2023-02-17T16:10:05;1.50;;;0.90;;
74267;SDS011;62638;51.362;12.472;2023-02-17T16:12:31;1.02;;;0.60;;
74267;SDS011;62638;51.362;12.472;2023-02-17T16:14:57;0.57;;;0.50;;
74267;SDS011;62638;51.362;12.472;2023-02-17T16:17:22;1.67;;;0.70;;